B1012 ZBTJ-ZBAA
Flight info
| Callsign | B1012 |
|---|---|
| Flight time | N/A |
| Altitude | 10000 |
| Route | IGMOR3W IGMOR DCT DUMAP DUMAP9Z |
| Aircraft | TBM9/L-SDFGRWY/S |
Departure
| Time | 2026-04-24 17:08 |
|---|---|
| Airport | Tianjin Binhai International Airport (ZBTJ) |
Arrival
| Time | N/A |
|---|---|
| Airport | Beijing Capital International Airport (ZBAA) |
| Time | Latitude | Longitude | Altitude | Speed | Heading |
|---|---|---|---|---|---|
| 2026-04-24 16:50 | 39.12439 | 117.36272 | 14 ft | 0 kts | 154° |
| 2026-04-24 17:00 | 39.12464 | 117.36257 | 14 ft | 3 kts | 154° |
| 2026-04-24 17:00 | 39.12482 | 117.36245 | 14 ft | 3 kts | 157° |
| 2026-04-24 17:01 | 39.12496 | 117.36223 | 14 ft | 2 kts | 65° |
| 2026-04-24 17:01 | 39.12492 | 117.36210 | 14 ft | 0 kts | 65° |
| 2026-04-24 17:02 | 39.12492 | 117.36209 | 14 ft | 0 kts | 65° |
| 2026-04-24 17:03 | 39.12505 | 117.36251 | 14 ft | 7 kts | 64° |
| 2026-04-24 17:04 | 39.12531 | 117.36318 | 14 ft | 11 kts | 63° |
| 2026-04-24 17:04 | 39.12632 | 117.36593 | 14 ft | 19 kts | 66° |
| 2026-04-24 17:04 | 39.12690 | 117.36748 | 14 ft | 20 kts | 66° |
| 2026-04-24 17:05 | 39.12727 | 117.36878 | 14 ft | 11 kts | 111° |
| 2026-04-24 17:05 | 39.12662 | 117.36935 | 13 ft | 12 kts | 154° |
| 2026-04-24 17:05 | 39.12495 | 117.37035 | 14 ft | 14 kts | 155° |
| 2026-04-24 17:06 | 39.12382 | 117.37107 | 14 ft | 33 kts | 155° |
| 2026-04-24 17:06 | 39.11869 | 117.37420 | 13 ft | 40 kts | 155° |
| 2026-04-24 17:06 | 39.11639 | 117.37563 | 14 ft | 28 kts | 148° |
| 2026-04-24 17:07 | 39.11638 | 117.37660 | 13 ft | 17 kts | 54° |
| 2026-04-24 17:07 | 39.11737 | 117.37737 | 11 ft | 15 kts | 339° |
| 2026-04-24 17:07 | 39.12611 | 117.37211 | 96 ft | 119 kts | 335° |
| 2026-04-24 17:08 | 39.14435 | 117.36258 | 740 ft | 162 kts | 339° |
| 2026-04-24 17:08 | 39.15568 | 117.35886 | 1095 ft | 179 kts | 345° |
| 2026-04-24 17:08 | 39.16861 | 117.35600 | 1291 ft | 194 kts | 345° |
| 2026-04-24 17:09 | 39.19715 | 117.35060 | 1706 ft | 221 kts | 348° |
| 2026-04-24 17:09 | 39.22714 | 117.34624 | 2439 ft | 205 kts | 335° |
| 2026-04-24 17:10 | 39.23837 | 117.33581 | 2762 ft | 198 kts | 309° |
| 2026-04-24 17:10 | 39.25890 | 117.28974 | 3685 ft | 202 kts | 298° |
| 2026-04-24 17:11 | 39.28131 | 117.24254 | 5024 ft | 209 kts | 300° |
| 2026-04-24 17:12 | 39.33946 | 117.17226 | 5984 ft | 258 kts | 318° |